sensor_id;sensor_type;location;lat;lon;timestamp;P1;durP1;ratioP1;P2;durP2;ratioP2
31348;SDS011;17976;48.480;11.946;2023-07-13T06:20:33;9.00;;;3.83;;
31348;SDS011;17976;48.480;11.946;2023-07-13T06:22:59;10.75;;;4.00;;
31348;SDS011;17976;48.480;11.946;2023-07-13T06:25:26;6.45;;;3.08;;
31348;SDS011;17976;48.480;11.946;2023-07-13T06:27:52;9.05;;;3.15;;
31348;SDS011;17976;48.480;11.946;2023-07-13T06:30:18;16.02;;;3.58;;
31348;SDS011;17976;48.480;11.946;2023-07-13T06:32:44;8.85;;;3.30;;
31348;SDS011;17976;48.480;11.946;2023-07-13T06:35:10;10.40;;;3.28;;
31348;SDS011;17976;48.480;11.946;2023-07-13T06:37:38;6.97;;;3.00;;
31348;SDS011;17976;48.480;11.946;2023-07-13T06:40:04;6.90;;;2.70;;
31348;SDS011;17976;48.480;11.946;2023-07-13T06:42:31;7.25;;;3.10;;
31348;SDS011;17976;48.480;11.946;2023-07-13T06:44:57;6.32;;;2.40;;
31348;SDS011;17976;48.480;11.946;2023-07-13T06:47:23;9.10;;;2.95;;
31348;SDS011;17976;48.480;11.946;2023-07-13T06:49:48;7.20;;;2.22;;
31348;SDS011;17976;48.480;11.946;2023-07-13T06:52:14;7.07;;;2.20;;
31348;SDS011;17976;48.480;11.946;2023-07-13T06:54:40;4.72;;;2.30;;
31348;SDS011;17976;48.480;11.946;2023-07-13T06:57:06;11.18;;;2.58;;
31348;SDS011;17976;48.480;11.946;2023-07-13T06:59:32;8.68;;;2.38;;
31348;SDS011;17976;48.480;11.946;2023-07-13T07:01:58;8.05;;;2.20;;
31348;SDS011;17976;48.480;11.946;2023-07-13T07:04:24;4.25;;;2.22;;
31348;SDS011;17976;48.480;11.946;2023-07-13T07:06:50;7.55;;;2.40;;
31348;SDS011;17976;48.480;11.946;2023-07-13T07:09:16;8.52;;;2.60;;
31348;SDS011;17976;48.480;11.946;2023-07-13T07:11:42;7.15;;;2.72;;
31348;SDS011;17976;48.480;11.946;2023-07-13T07:14:08;4.57;;;1.90;;
31348;SDS011;17976;48.480;11.946;2023-07-13T07:16:34;3.47;;;2.15;;
31348;SDS011;17976;48.480;11.946;2023-07-13T07:19:00;5.65;;;2.22;;
31348;SDS011;17976;48.480;11.946;2023-07-13T07:21:27;6.75;;;2.20;;
31348;SDS011;17976;48.480;11.946;2023-07-13T07:23:53;6.00;;;1.98;;
31348;SDS011;17976;48.480;11.946;2023-07-13T07:26:19;9.50;;;2.30;;
31348;SDS011;17976;48.480;11.946;2023-07-13T07:28:44;15.02;;;2.20;;
31348;SDS011;17976;48.480;11.946;2023-07-13T07:31:10;7.05;;;2.25;;
31348;SDS011;17976;48.480;11.946;2023-07-13T07:33:36;4.75;;;2.35;;
31348;SDS011;17976;48.480;11.946;2023-07-13T07:36:03;7.10;;;2.15;;
31348;SDS011;17976;48.480;11.946;2023-07-13T07:38:29;4.03;;;2.42;;
31348;SDS011;17976;48.480;11.946;2023-07-13T07:40:55;6.10;;;2.40;;
31348;SDS011;17976;48.480;11.946;2023-07-13T07:43:21;4.82;;;2.50;;
31348;SDS011;17976;48.480;11.946;2023-07-13T07:45:47;9.25;;;2.38;;
31348;SDS011;17976;48.480;11.946;2023-07-13T07:48:13;4.45;;;1.98;;
31348;SDS011;17976;48.480;11.946;2023-07-13T07:50:39;4.65;;;2.20;;
31348;SDS011;17976;48.480;11.946;2023-07-13T07:53:06;6.60;;;2.20;;
31348;SDS011;17976;48.480;11.946;2023-07-13T07:55:33;9.27;;;2.28;;
31348;SDS011;17976;48.480;11.946;2023-07-13T07:57:59;5.32;;;2.63;;
31348;SDS011;17976;48.480;11.946;2023-07-13T08:00:25;5.35;;;2.60;;
31348;SDS011;17976;48.480;11.946;2023-07-13T08:02:53;9.98;;;2.33;;
31348;SDS011;17976;48.480;11.946;2023-07-13T08:05:19;10.85;;;2.92;;
31348;SDS011;17976;48.480;11.946;2023-07-13T08:07:44;7.65;;;2.50;;
31348;SDS011;17976;48.480;11.946;2023-07-13T08:10:10;7.25;;;2.17;;
31348;SDS011;17976;48.480;11.946;2023-07-13T08:12:37;6.28;;;2.30;;
31348;SDS011;17976;48.480;11.946;2023-07-13T08:15:03;11.75;;;2.35;;
31348;SDS011;17976;48.480;11.946;2023-07-13T08:17:30;7.38;;;2.30;;
31348;SDS011;17976;48.480;11.946;2023-07-13T08:19:56;5.07;;;2.10;;
31348;SDS011;17976;48.480;11.946;2023-07-13T08:22:22;5.13;;;2.20;;
31348;SDS011;17976;48.480;11.946;2023-07-13T08:24:48;5.72;;;2.00;;
31348;SDS011;17976;48.480;11.946;2023-07-13T08:27:20;7.07;;;1.90;;
31348;SDS011;17976;48.480;11.946;2023-07-13T08:29:47;3.85;;;2.17;;
31348;SDS011;17976;48.480;11.946;2023-07-13T08:32:13;9.52;;;1.88;;
31348;SDS011;17976;48.480;11.946;2023-07-13T08:34:39;7.75;;;2.22;;
31348;SDS011;17976;48.480;11.946;2023-07-13T08:37:06;6.43;;;2.05;;
31348;SDS011;17976;48.480;11.946;2023-07-13T08:39:32;6.05;;;2.55;;
31348;SDS011;17976;48.480;11.946;2023-07-13T08:42:07;25.38;;;2.72;;
31348;SDS011;17976;48.480;11.946;2023-07-13T08:44:40;7.65;;;2.38;;
31348;SDS011;17976;48.480;11.946;2023-07-13T08:47:10;3.65;;;1.75;;
31348;SDS011;17976;48.480;11.946;2023-07-13T08:49:37;9.73;;;1.90;;
31348;SDS011;17976;48.480;11.946;2023-07-13T08:52:29;4.53;;;1.90;;
31348;SDS011;17976;48.480;11.946;2023-07-13T08:54:57;3.92;;;2.05;;
31348;SDS011;17976;48.480;11.946;2023-07-13T08:57:31;3.28;;;1.73;;
31348;SDS011;17976;48.480;11.946;2023-07-13T08:59:57;10.23;;;2.15;;
31348;SDS011;17976;48.480;11.946;2023-07-13T09:02:28;8.20;;;2.80;;
31348;SDS011;17976;48.480;11.946;2023-07-13T09:05:01;4.05;;;1.20;;
31348;SDS011;17976;48.480;11.946;2023-07-13T09:07:34;6.15;;;1.48;;
31348;SDS011;17976;48.480;11.946;2023-07-13T09:10:12;6.32;;;1.60;;
31348;SDS011;17976;48.480;11.946;2023-07-13T09:15:48;2.60;;;1.70;;
31348;SDS011;17976;48.480;11.946;2023-07-13T09:18:26;5.03;;;1.55;;
31348;SDS011;17976;48.480;11.946;2023-07-13T09:23:20;3.78;;;1.30;;
31348;SDS011;17976;48.480;11.946;2023-07-13T09:25:51;7.93;;;1.90;;
31348;SDS011;17976;48.480;11.946;2023-07-13T09:28:23;8.68;;;2.17;;
31348;SDS011;17976;48.480;11.946;2023-07-13T09:30:51;5.82;;;2.22;;
31348;SDS011;17976;48.480;11.946;2023-07-13T09:33:21;7.50;;;1.77;;
31348;SDS011;17976;48.480;11.946;2023-07-13T09:35:47;8.23;;;2.20;;
31348;SDS011;17976;48.480;11.946;2023-07-13T09:38:15;5.97;;;1.80;;
31348;SDS011;17976;48.480;11.946;2023-07-13T09:40:57;7.68;;;2.22;;
31348;SDS011;17976;48.480;11.946;2023-07-13T09:43:25;5.70;;;2.30;;
31348;SDS011;17976;48.480;11.946;2023-07-13T09:45:53;8.82;;;2.08;;
31348;SDS011;17976;48.480;11.946;2023-07-13T09:48:19;9.98;;;2.20;;
31348;SDS011;17976;48.480;11.946;2023-07-13T09:50:46;8.23;;;2.28;;
31348;SDS011;17976;48.480;11.946;2023-07-13T09:53:15;5.25;;;1.90;;
31348;SDS011;17976;48.480;11.946;2023-07-13T09:55:42;7.90;;;2.17;;
31348;SDS011;17976;48.480;11.946;2023-07-13T09:58:19;7.47;;;1.88;;
31348;SDS011;17976;48.480;11.946;2023-07-13T10:01:21;5.80;;;1.92;;
31348;SDS011;17976;48.480;11.946;2023-07-13T10:03:42;4.47;;;1.98;;
31348;SDS011;17976;48.480;11.946;2023-07-13T10:06:18;4.43;;;1.85;;
31348;SDS011;17976;48.480;11.946;2023-07-13T10:08:45;4.40;;;1.70;;
31348;SDS011;17976;48.480;11.946;2023-07-13T10:11:21;9.15;;;1.50;;
31348;SDS011;17976;48.480;11.946;2023-07-13T10:13:52;2.85;;;1.40;;
31348;SDS011;17976;48.480;11.946;2023-07-13T10:16:20;6.00;;;1.48;;
31348;SDS011;17976;48.480;11.946;2023-07-13T10:18:57;4.93;;;1.90;;
31348;SDS011;17976;48.480;11.946;2023-07-13T10:21:27;5.80;;;1.75;;
31348;SDS011;17976;48.480;11.946;2023-07-13T10:23:55;5.70;;;1.75;;
31348;SDS011;17976;48.480;11.946;2023-07-13T10:26:29;9.82;;;1.70;;
31348;SDS011;17976;48.480;11.946;2023-07-13T10:28:56;6.20;;;1.70;;
31348;SDS011;17976;48.480;11.946;2023-07-13T10:31:22;2.97;;;1.45;;
31348;SDS011;17976;48.480;11.946;2023-07-13T10:33:49;9.10;;;1.83;;
31348;SDS011;17976;48.480;11.946;2023-07-13T10:38:47;5.53;;;1.80;;
31348;SDS011;17976;48.480;11.946;2023-07-13T10:41:15;4.20;;;2.03;;
31348;SDS011;17976;48.480;11.946;2023-07-13T10:43:44;6.90;;;1.77;;
31348;SDS011;17976;48.480;11.946;2023-07-13T10:46:12;4.57;;;1.85;;
31348;SDS011;17976;48.480;11.946;2023-07-13T10:48:39;4.75;;;1.63;;
31348;SDS011;17976;48.480;11.946;2023-07-13T10:51:06;7.05;;;2.17;;
31348;SDS011;17976;48.480;11.946;2023-07-13T10:53:36;6.38;;;1.60;;
31348;SDS011;17976;48.480;11.946;2023-07-13T10:58:40;2.90;;;1.40;;
31348;SDS011;17976;48.480;11.946;2023-07-13T11:03:33;2.30;;;1.17;;
31348;SDS011;17976;48.480;11.946;2023-07-13T11:06:16;4.22;;;1.40;;
31348;SDS011;17976;48.480;11.946;2023-07-13T11:18:45;1.92;;;1.13;;
31348;SDS011;17976;48.480;11.946;2023-07-13T11:21:15;2.10;;;1.23;;
31348;SDS011;17976;48.480;11.946;2023-07-13T11:23:42;5.53;;;1.55;;
31348;SDS011;17976;48.480;11.946;2023-07-13T11:28:54;4.82;;;1.40;;
31348;SDS011;17976;48.480;11.946;2023-07-13T11:31:20;2.83;;;1.27;;
31348;SDS011;17976;48.480;11.946;2023-07-13T11:33:52;3.05;;;1.13;;
31348;SDS011;17976;48.480;11.946;2023-07-13T11:36:19;4.80;;;1.70;;
31348;SDS011;17976;48.480;11.946;2023-07-13T11:41:35;3.53;;;1.20;;
31348;SDS011;17976;48.480;11.946;2023-07-13T11:44:05;4.15;;;1.55;;
31348;SDS011;17976;48.480;11.946;2023-07-13T11:46:31;2.15;;;0.90;;
31348;SDS011;17976;48.480;11.946;2023-07-13T11:48:57;7.07;;;1.30;;
31348;SDS011;17976;48.480;11.946;2023-07-13T11:53:50;3.67;;;1.17;;
31348;SDS011;17976;48.480;11.946;2023-07-13T11:56:17;3.70;;;1.25;;
31348;SDS011;17976;48.480;11.946;2023-07-13T11:58:52;3.10;;;1.27;;
31348;SDS011;17976;48.480;11.946;2023-07-13T12:01:26;3.65;;;1.33;;
31348;SDS011;17976;48.480;11.946;2023-07-13T12:03:57;4.57;;;1.25;;
31348;SDS011;17976;48.480;11.946;2023-07-13T12:06:28;2.40;;;0.90;;
31348;SDS011;17976;48.480;11.946;2023-07-13T12:08:59;3.50;;;1.30;;
31348;SDS011;17976;48.480;11.946;2023-07-13T12:11:25;4.63;;;1.20;;
31348;SDS011;17976;48.480;11.946;2023-07-13T12:13:52;2.33;;;1.23;;
31348;SDS011;17976;48.480;11.946;2023-07-13T12:16:30;3.92;;;1.40;;
31348;SDS011;17976;48.480;11.946;2023-07-13T12:18:57;3.17;;;1.13;;
31348;SDS011;17976;48.480;11.946;2023-07-13T12:21:31;2.47;;;1.13;;
31348;SDS011;17976;48.480;11.946;2023-07-13T12:23:57;3.35;;;1.35;;
31348;SDS011;17976;48.480;11.946;2023-07-13T12:26:24;5.25;;;1.50;;
31348;SDS011;17976;48.480;11.946;2023-07-13T12:28:52;5.55;;;1.35;;
31348;SDS011;17976;48.480;11.946;2023-07-13T12:31:34;11.73;;;1.13;;
31348;SDS011;17976;48.480;11.946;2023-07-13T12:36:29;6.38;;;1.20;;
31348;SDS011;17976;48.480;11.946;2023-07-13T12:39:04;3.90;;;1.20;;
31348;SDS011;17976;48.480;11.946;2023-07-13T12:41:35;6.95;;;1.40;;
31348;SDS011;17976;48.480;11.946;2023-07-13T12:44:01;3.85;;;1.65;;
31348;SDS011;17976;48.480;11.946;2023-07-13T12:46:28;5.40;;;1.50;;
31348;SDS011;17976;48.480;11.946;2023-07-13T12:48:54;3.00;;;1.30;;
31348;SDS011;17976;48.480;11.946;2023-07-13T12:51:21;3.35;;;1.35;;
31348;SDS011;17976;48.480;11.946;2023-07-13T12:53:49;5.88;;;1.35;;
31348;SDS011;17976;48.480;11.946;2023-07-13T12:56:22;2.45;;;1.40;;
31348;SDS011;17976;48.480;11.946;2023-07-13T12:58:49;3.33;;;1.48;;
31348;SDS011;17976;48.480;11.946;2023-07-13T13:01:19;3.22;;;1.10;;
31348;SDS011;17976;48.480;11.946;2023-07-13T13:03:52;3.08;;;1.42;;
31348;SDS011;17976;48.480;11.946;2023-07-13T13:08:49;6.50;;;1.38;;
31348;SDS011;17976;48.480;11.946;2023-07-13T13:11:15;2.70;;;1.10;;
31348;SDS011;17976;48.480;11.946;2023-07-13T13:13:42;2.70;;;1.10;;
31348;SDS011;17976;48.480;11.946;2023-07-13T13:16:09;5.47;;;1.48;;
31348;SDS011;17976;48.480;11.946;2023-07-13T13:18:36;7.88;;;1.30;;
31348;SDS011;17976;48.480;11.946;2023-07-13T13:21:02;9.65;;;1.48;;
31348;SDS011;17976;48.480;11.946;2023-07-13T13:23:28;3.38;;;1.50;;
31348;SDS011;17976;48.480;11.946;2023-07-13T13:25:54;3.63;;;1.48;;
31348;SDS011;17976;48.480;11.946;2023-07-13T13:28:20;2.50;;;1.40;;
31348;SDS011;17976;48.480;11.946;2023-07-13T13:30:49;3.92;;;1.33;;
31348;SDS011;17976;48.480;11.946;2023-07-13T13:33:16;2.78;;;1.20;;
31348;SDS011;17976;48.480;11.946;2023-07-13T13:35:43;4.80;;;1.48;;
31348;SDS011;17976;48.480;11.946;2023-07-13T13:38:10;5.88;;;1.70;;
31348;SDS011;17976;48.480;11.946;2023-07-13T13:40:37;3.25;;;1.27;;
31348;SDS011;17976;48.480;11.946;2023-07-13T13:43:04;1.90;;;1.20;;
31348;SDS011;17976;48.480;11.946;2023-07-13T13:45:30;3.75;;;1.42;;
31348;SDS011;17976;48.480;11.946;2023-07-13T13:47:57;3.28;;;1.85;;
31348;SDS011;17976;48.480;11.946;2023-07-13T13:50:23;5.13;;;2.03;;
31348;SDS011;17976;48.480;11.946;2023-07-13T13:52:49;2.45;;;1.52;;
31348;SDS011;17976;48.480;11.946;2023-07-13T13:55:20;2.78;;;1.42;;
31348;SDS011;17976;48.480;11.946;2023-07-13T13:57:49;3.08;;;1.70;;
31348;SDS011;17976;48.480;11.946;2023-07-13T14:00:15;5.90;;;1.40;;
31348;SDS011;17976;48.480;11.946;2023-07-13T14:02:44;4.78;;;1.50;;
31348;SDS011;17976;48.480;11.946;2023-07-13T14:05:23;2.90;;;1.63;;
31348;SDS011;17976;48.480;11.946;2023-07-13T14:07:51;12.90;;;2.13;;
31348;SDS011;17976;48.480;11.946;2023-07-13T14:10:18;3.60;;;1.42;;
31348;SDS011;17976;48.480;11.946;2023-07-13T14:12:45;3.47;;;1.60;;
31348;SDS011;17976;48.480;11.946;2023-07-13T14:15:17;3.28;;;1.35;;
31348;SDS011;17976;48.480;11.946;2023-07-13T14:17:43;2.92;;;1.50;;
31348;SDS011;17976;48.480;11.946;2023-07-13T14:20:13;3.95;;;1.60;;
31348;SDS011;17976;48.480;11.946;2023-07-13T14:22:40;2.97;;;1.80;;
31348;SDS011;17976;48.480;11.946;2023-07-13T14:25:10;5.15;;;1.90;;
31348;SDS011;17976;48.480;11.946;2023-07-13T14:27:36;2.20;;;1.40;;
31348;SDS011;17976;48.480;11.946;2023-07-13T14:30:02;4.93;;;1.67;;
31348;SDS011;17976;48.480;11.946;2023-07-13T14:32:28;2.92;;;1.50;;
31348;SDS011;17976;48.480;11.946;2023-07-13T14:34:54;2.92;;;1.35;;
31348;SDS011;17976;48.480;11.946;2023-07-13T14:37:20;4.18;;;1.70;;
31348;SDS011;17976;48.480;11.946;2023-07-13T14:39:46;2.22;;;1.45;;
31348;SDS011;17976;48.480;11.946;2023-07-13T14:42:14;2.10;;;1.10;;
31348;SDS011;17976;48.480;11.946;2023-07-13T14:44:40;4.28;;;1.40;;
31348;SDS011;17976;48.480;11.946;2023-07-13T14:47:06;2.50;;;1.05;;
31348;SDS011;17976;48.480;11.946;2023-07-13T14:49:34;3.10;;;1.60;;
31348;SDS011;17976;48.480;11.946;2023-07-13T14:52:02;2.40;;;1.48;;
31348;SDS011;17976;48.480;11.946;2023-07-13T14:54:29;4.10;;;1.50;;
31348;SDS011;17976;48.480;11.946;2023-07-13T14:56:55;4.35;;;1.30;;
31348;SDS011;17976;48.480;11.946;2023-07-13T14:59:21;5.55;;;1.75;;
31348;SDS011;17976;48.480;11.946;2023-07-13T15:01:48;9.30;;;2.00;;
31348;SDS011;17976;48.480;11.946;2023-07-13T15:04:14;4.30;;;1.50;;
31348;SDS011;17976;48.480;11.946;2023-07-13T15:06:53;3.92;;;1.25;;
31348;SDS011;17976;48.480;11.946;2023-07-13T15:09:19;3.28;;;1.40;;
31348;SDS011;17976;48.480;11.946;2023-07-13T15:11:45;3.72;;;1.50;;
31348;SDS011;17976;48.480;11.946;2023-07-13T15:14:11;3.03;;;1.30;;
31348;SDS011;17976;48.480;11.946;2023-07-13T15:16:37;2.63;;;1.13;;
31348;SDS011;17976;48.480;11.946;2023-07-13T15:19:03;4.40;;;1.48;;
31348;SDS011;17976;48.480;11.946;2023-07-13T15:21:29;4.97;;;1.40;;
31348;SDS011;17976;48.480;11.946;2023-07-13T15:23:59;2.45;;;1.30;;
31348;SDS011;17976;48.480;11.946;2023-07-13T15:26:26;4.78;;;1.40;;
31348;SDS011;17976;48.480;11.946;2023-07-13T15:28:52;7.40;;;1.08;;
31348;SDS011;17976;48.480;11.946;2023-07-13T15:31:22;2.78;;;1.38;;
31348;SDS011;17976;48.480;11.946;2023-07-13T15:33:49;3.30;;;1.27;;
31348;SDS011;17976;48.480;11.946;2023-07-13T15:36:16;3.42;;;1.55;;
31348;SDS011;17976;48.480;11.946;2023-07-13T15:38:42;3.80;;;1.30;;
31348;SDS011;17976;48.480;11.946;2023-07-13T15:41:28;5.10;;;1.50;;
31348;SDS011;17976;48.480;11.946;2023-07-13T15:43:55;2.03;;;1.00;;
31348;SDS011;17976;48.480;11.946;2023-07-13T15:46:24;3.50;;;1.38;;
31348;SDS011;17976;48.480;11.946;2023-07-13T15:48:51;1.20;;;1.10;;
31348;SDS011;17976;48.480;11.946;2023-07-13T15:51:28;2.95;;;1.92;;
31348;SDS011;17976;48.480;11.946;2023-07-13T15:53:56;5.20;;;1.27;;
31348;SDS011;17976;48.480;11.946;2023-07-13T15:56:25;3.25;;;1.17;;
31348;SDS011;17976;48.480;11.946;2023-07-13T15:58:52;2.92;;;1.30;;
31348;SDS011;17976;48.480;11.946;2023-07-13T16:01:18;1.90;;;1.08;;
31348;SDS011;17976;48.480;11.946;2023-07-13T16:03:47;2.75;;;1.30;;
31348;SDS011;17976;48.480;11.946;2023-07-13T16:06:21;5.82;;;2.25;;
31348;SDS011;17976;48.480;11.946;2023-07-13T16:08:48;8.70;;;2.72;;
31348;SDS011;17976;48.480;11.946;2023-07-13T16:11:25;6.28;;;1.73;;
31348;SDS011;17976;48.480;11.946;2023-07-13T16:13:52;4.97;;;1.92;;
31348;SDS011;17976;48.480;11.946;2023-07-13T16:16:23;2.08;;;1.55;;
31348;SDS011;17976;48.480;11.946;2023-07-13T16:18:50;3.75;;;1.88;;
31348;SDS011;17976;48.480;11.946;2023-07-13T16:21:19;5.28;;;1.70;;
31348;SDS011;17976;48.480;11.946;2023-07-13T16:23:45;4.85;;;1.30;;
31348;SDS011;17976;48.480;11.946;2023-07-13T16:26:20;3.42;;;0.98;;
31348;SDS011;17976;48.480;11.946;2023-07-13T16:28:47;3.92;;;1.10;;
31348;SDS011;17976;48.480;11.946;2023-07-13T16:31:13;2.80;;;1.30;;
31348;SDS011;17976;48.480;11.946;2023-07-13T16:33:39;1.55;;;1.00;;
31348;SDS011;17976;48.480;11.946;2023-07-13T16:36:08;3.45;;;1.40;;
31348;SDS011;17976;48.480;11.946;2023-07-13T16:38:36;2.10;;;1.00;;
31348;SDS011;17976;48.480;11.946;2023-07-13T16:41:02;1.48;;;1.15;;
31348;SDS011;17976;48.480;11.946;2023-07-13T16:43:30;3.30;;;0.95;;
31348;SDS011;17976;48.480;11.946;2023-07-13T16:45:56;1.88;;;1.17;;
31348;SDS011;17976;48.480;11.946;2023-07-13T16:48:24;6.65;;;1.30;;
31348;SDS011;17976;48.480;11.946;2023-07-13T16:50:55;4.18;;;1.25;;
31348;SDS011;17976;48.480;11.946;2023-07-13T16:53:22;2.45;;;1.45;;
31348;SDS011;17976;48.480;11.946;2023-07-13T16:55:49;4.32;;;1.10;;
31348;SDS011;17976;48.480;11.946;2023-07-13T16:58:15;2.47;;;1.00;;
31348;SDS011;17976;48.480;11.946;2023-07-13T17:00:41;5.45;;;1.50;;
31348;SDS011;17976;48.480;11.946;2023-07-13T17:03:07;2.00;;;0.90;;
31348;SDS011;17976;48.480;11.946;2023-07-13T17:08:01;2.78;;;1.05;;
31348;SDS011;17976;48.480;11.946;2023-07-13T17:10:28;3.05;;;1.20;;
31348;SDS011;17976;48.480;11.946;2023-07-13T17:12:55;5.57;;;1.15;;
31348;SDS011;17976;48.480;11.946;2023-07-13T17:15:22;5.07;;;1.10;;
31348;SDS011;17976;48.480;11.946;2023-07-13T17:17:49;4.68;;;1.20;;
31348;SDS011;17976;48.480;11.946;2023-07-13T17:22:47;4.55;;;3.15;;
31348;SDS011;17976;48.480;11.946;2023-07-13T17:25:13;5.57;;;1.55;;
31348;SDS011;17976;48.480;11.946;2023-07-13T17:27:39;7.80;;;2.03;;
31348;SDS011;17976;48.480;11.946;2023-07-13T17:30:06;3.05;;;1.40;;
31348;SDS011;17976;48.480;11.946;2023-07-13T17:32:32;3.85;;;1.20;;
31348;SDS011;17976;48.480;11.946;2023-07-13T17:34:59;3.47;;;1.17;;
31348;SDS011;17976;48.480;11.946;2023-07-13T17:37:25;3.83;;;1.17;;
31348;SDS011;17976;48.480;11.946;2023-07-13T17:39:51;3.83;;;1.10;;
31348;SDS011;17976;48.480;11.946;2023-07-13T17:42:18;7.95;;;1.88;;
31348;SDS011;17976;48.480;11.946;2023-07-13T17:44:43;4.60;;;1.75;;
31348;SDS011;17976;48.480;11.946;2023-07-13T17:47:22;4.85;;;1.90;;
31348;SDS011;17976;48.480;11.946;2023-07-13T17:49:48;2.60;;;1.58;;
31348;SDS011;17976;48.480;11.946;2023-07-13T17:52:14;5.07;;;1.90;;
31348;SDS011;17976;48.480;11.946;2023-07-13T17:54:40;3.97;;;1.52;;
31348;SDS011;17976;48.480;11.946;2023-07-13T17:57:06;4.00;;;3.00;;
31348;SDS011;17976;48.480;11.946;2023-07-13T17:59:32;4.22;;;2.30;;
31348;SDS011;17976;48.480;11.946;2023-07-13T18:01:58;2.83;;;1.25;;
31348;SDS011;17976;48.480;11.946;2023-07-13T18:04:24;7.57;;;1.30;;
31348;SDS011;17976;48.480;11.946;2023-07-13T18:06:52;4.95;;;1.40;;
31348;SDS011;17976;48.480;11.946;2023-07-13T18:09:22;4.85;;;1.13;;
31348;SDS011;17976;48.480;11.946;2023-07-13T18:11:49;6.22;;;1.77;;
31348;SDS011;17976;48.480;11.946;2023-07-13T18:14:15;10.20;;;4.82;;
31348;SDS011;17976;48.480;11.946;2023-07-13T18:16:42;6.68;;;2.20;;
31348;SDS011;17976;48.480;11.946;2023-07-13T18:19:17;4.13;;;1.67;;
31348;SDS011;17976;48.480;11.946;2023-07-13T18:21:46;5.65;;;1.35;;
31348;SDS011;17976;48.480;11.946;2023-07-13T18:24:12;6.93;;;1.33;;
31348;SDS011;17976;48.480;11.946;2023-07-13T18:26:38;3.58;;;1.52;;
31348;SDS011;17976;48.480;11.946;2023-07-13T18:29:05;4.07;;;1.10;;
31348;SDS011;17976;48.480;11.946;2023-07-13T18:31:32;4.75;;;1.30;;
31348;SDS011;17976;48.480;11.946;2023-07-13T18:33:59;6.55;;;1.10;;
31348;SDS011;17976;48.480;11.946;2023-07-13T18:36:27;5.63;;;1.35;;
31348;SDS011;17976;48.480;11.946;2023-07-13T18:38:53;4.03;;;1.23;;
31348;SDS011;17976;48.480;11.946;2023-07-13T18:41:19;9.18;;;1.48;;
31348;SDS011;17976;48.480;11.946;2023-07-13T18:43:46;5.25;;;1.23;;
31348;SDS011;17976;48.480;11.946;2023-07-13T18:46:20;3.85;;;1.42;;
31348;SDS011;17976;48.480;11.946;2023-07-13T18:48:47;5.55;;;1.00;;
31348;SDS011;17976;48.480;11.946;2023-07-13T18:51:14;3.70;;;1.48;;
31348;SDS011;17976;48.480;11.946;2023-07-13T18:53:40;4.35;;;1.40;;
31348;SDS011;17976;48.480;11.946;2023-07-13T18:56:06;3.65;;;1.25;;
31348;SDS011;17976;48.480;11.946;2023-07-13T18:58:32;9.45;;;1.48;;
31348;SDS011;17976;48.480;11.946;2023-07-13T19:00:59;3.28;;;1.20;;
31348;SDS011;17976;48.480;11.946;2023-07-13T19:03:29;2.92;;;1.00;;
31348;SDS011;17976;48.480;11.946;2023-07-13T19:05:56;4.57;;;1.40;;
31348;SDS011;17976;48.480;11.946;2023-07-13T19:08:23;4.13;;;1.50;;
31348;SDS011;17976;48.480;11.946;2023-07-13T19:10:51;4.43;;;1.42;;
31348;SDS011;17976;48.480;11.946;2023-07-13T19:13:21;5.30;;;1.27;;
31348;SDS011;17976;48.480;11.946;2023-07-13T19:15:48;4.70;;;1.52;;
31348;SDS011;17976;48.480;11.946;2023-07-13T19:18:15;3.20;;;1.50;;
31348;SDS011;17976;48.480;11.946;2023-07-13T19:20:41;5.50;;;1.48;;
31348;SDS011;17976;48.480;11.946;2023-07-13T19:25:53;5.93;;;1.70;;
31348;SDS011;17976;48.480;11.946;2023-07-13T19:28:30;3.08;;;1.98;;
31348;SDS011;17976;48.480;11.946;2023-07-13T19:30:58;5.85;;;2.20;;
31348;SDS011;17976;48.480;11.946;2023-07-13T19:33:24;5.85;;;1.90;;
31348;SDS011;17976;48.480;11.946;2023-07-13T19:35:50;6.97;;;1.88;;
31348;SDS011;17976;48.480;11.946;2023-07-13T19:38:16;3.45;;;1.50;;
31348;SDS011;17976;48.480;11.946;2023-07-13T19:40:46;5.25;;;1.90;;
31348;SDS011;17976;48.480;11.946;2023-07-13T19:43:12;4.00;;;1.60;;
31348;SDS011;17976;48.480;11.946;2023-07-13T19:45:39;4.03;;;1.52;;
31348;SDS011;17976;48.480;11.946;2023-07-13T19:48:05;8.80;;;1.98;;
31348;SDS011;17976;48.480;11.946;2023-07-13T19:50:32;6.93;;;3.00;;
31348;SDS011;17976;48.480;11.946;2023-07-13T19:52:58;7.75;;;2.00;;
31348;SDS011;17976;48.480;11.946;2023-07-13T19:55:25;2.47;;;1.80;;
31348;SDS011;17976;48.480;11.946;2023-07-13T19:57:52;3.90;;;1.60;;
